createdAt,value
2019-02-04T00:00:38.130Z,47.17
2019-02-04T00:03:07.918Z,48.01
2019-02-04T00:05:34.099Z,47.51
2019-02-04T00:08:00.314Z,47.77
2019-02-04T00:10:26.505Z,47.55
2019-02-04T00:12:52.809Z,47.58
2019-02-04T00:15:19.399Z,47.23
2019-02-04T00:17:45.588Z,47.19
2019-02-04T00:20:12.175Z,46.89
2019-02-04T00:22:38.497Z,46.77
2019-02-04T00:25:05.993Z,47.15
2019-02-04T00:27:32.286Z,48.69
2019-02-04T00:29:58.656Z,47.90
2019-02-04T00:32:25.531Z,48.34
2019-02-04T00:34:51.829Z,48.02
2019-02-04T00:37:18.159Z,48.18
2019-02-04T00:39:44.433Z,48.47
2019-02-04T00:42:10.712Z,48.57
2019-02-04T00:44:36.927Z,48.91
2019-02-04T00:47:03.586Z,48.42
2019-02-04T00:49:29.764Z,48.39
2019-02-04T00:51:56.370Z,48.59
2019-02-04T00:54:22.677Z,48.17
2019-02-04T00:56:48.840Z,48.32
2019-02-04T00:59:15.156Z,48.99
2019-02-04T01:01:41.441Z,49.16
2019-02-04T01:04:07.628Z,49.66
2019-02-04T01:06:33.955Z,49.44
2019-02-04T01:09:00.244Z,49.04
2019-02-04T01:11:26.827Z,48.03
2019-02-04T01:13:53.012Z,47.98
2019-02-04T01:16:19.175Z,48.76
2019-02-04T01:18:45.347Z,49.54
2019-02-04T01:21:11.553Z,49.67
2019-02-04T01:23:37.715Z,49.54
2019-02-04T01:26:03.878Z,49.99
2019-02-04T01:28:30.063Z,50.40
2019-02-04T01:30:56.226Z,51.17
2019-02-04T01:33:22.379Z,51.69
2019-02-04T01:35:48.668Z,52.89
2019-02-04T01:38:14.837Z,52.36
2019-02-04T01:40:41.003Z,52.05
2019-02-04T01:43:07.329Z,52.85
2019-02-04T01:45:33.592Z,52.39
2019-02-04T01:48:00.181Z,52.25
2019-02-04T01:50:26.373Z,52.49
2019-02-04T01:52:52.535Z,52.84
2019-02-04T01:55:18.893Z,51.83
2019-02-04T01:57:47.888Z,51.88
2019-02-04T02:00:17.652Z,51.43
2019-02-04T02:02:43.815Z,50.78
2019-02-04T02:05:10.923Z,51.50
2019-02-04T02:07:37.184Z,51.72
2019-02-04T02:10:06.869Z,52.42
2019-02-04T02:12:33.173Z,50.94
2019-02-04T02:14:59.332Z,51.90
2019-02-04T02:17:26.722Z,51.06
2019-02-04T02:19:53.102Z,52.02
2019-02-04T02:22:19.776Z,52.03
2019-02-04T02:24:46.041Z,51.64
2019-02-04T02:27:12.233Z,51.76
2019-02-04T02:29:38.380Z,51.67
2019-02-04T02:32:05.455Z,51.55
2019-02-04T02:34:31.656Z,52.09
2019-02-04T02:36:57.838Z,51.43
2019-02-04T02:39:24.099Z,51.48
2019-02-04T02:41:50.612Z,51.75
2019-02-04T02:44:16.785Z,51.36
2019-02-04T02:46:42.932Z,51.52
2019-02-04T02:49:09.134Z,51.13
2019-02-04T02:51:35.297Z,50.77
2019-02-04T02:54:01.456Z,51.10
2019-02-04T02:56:27.662Z,50.98
2019-02-04T02:58:53.841Z,51.03
2019-02-04T03:01:20.503Z,50.89
2019-02-04T03:03:46.695Z,51.62
2019-02-04T03:06:12.975Z,51.12
2019-02-04T03:08:39.144Z,51.06
2019-02-04T03:11:05.448Z,51.03
2019-02-04T03:13:31.609Z,50.81
2019-02-04T03:15:57.885Z,51.00
2019-02-04T03:18:24.082Z,50.47
2019-02-04T03:20:50.464Z,50.67
2019-02-04T03:23:16.639Z,51.24
2019-02-04T03:25:42.828Z,51.25
2019-02-04T03:28:08.986Z,51.14
2019-02-04T03:30:35.164Z,51.39
2019-02-04T03:33:03.477Z,52.18
2019-02-04T03:35:29.635Z,52.90
2019-02-04T03:37:58.556Z,52.05
2019-02-04T03:40:26.957Z,52.45
2019-02-04T03:42:53.123Z,52.77
2019-02-04T03:45:19.586Z,52.92
2019-02-04T03:47:45.780Z,53.42
2019-02-04T03:50:13.139Z,53.78
2019-02-04T03:52:39.395Z,53.42
2019-02-04T03:55:09.228Z,53.60
2019-02-04T03:57:35.417Z,54.25
2019-02-04T04:00:01.731Z,54.51
2019-02-04T04:02:28.106Z,54.34
2019-02-04T04:04:54.380Z,55.30
2019-02-04T04:07:20.531Z,55.18
2019-02-04T04:09:46.740Z,55.33
2019-02-04T04:12:13.297Z,56.20
2019-02-04T04:14:39.571Z,56.02
2019-02-04T04:17:05.867Z,55.97
2019-02-04T04:19:32.037Z,57.65
2019-02-04T04:21:58.216Z,57.60
2019-02-04T04:24:24.536Z,57.63
2019-02-04T04:26:50.730Z,57.17
2019-02-04T04:29:16.999Z,57.25
2019-02-04T04:31:43.704Z,56.65
2019-02-04T04:34:09.922Z,56.80
2019-02-04T04:36:36.095Z,57.85
2019-02-04T04:39:04.786Z,57.94
2019-02-04T04:41:31.085Z,57.79
2019-02-04T04:43:57.250Z,57.80
2019-02-04T04:46:23.569Z,57.30
2019-02-04T04:48:49.749Z,57.48
2019-02-04T04:51:15.922Z,57.51
2019-02-04T04:53:42.218Z,57.46
2019-02-04T04:56:08.389Z,57.50
2019-02-04T04:58:34.661Z,56.84
2019-02-04T05:01:00.879Z,57.20
2019-02-04T05:03:27.050Z,56.33
2019-02-04T05:05:53.330Z,55.44
2019-02-04T05:08:19.552Z,55.47
2019-02-04T05:10:47.113Z,55.02
2019-02-04T05:13:13.285Z,54.86
2019-02-04T05:15:40.959Z,54.50
2019-02-04T05:18:07.101Z,53.83
2019-02-04T05:20:33.416Z,53.63
2019-02-04T05:22:59.612Z,54.57
2019-02-04T05:25:25.783Z,54.92
2019-02-04T05:27:52.353Z,53.87
2019-02-04T05:30:20.374Z,53.98
2019-02-04T05:32:46.544Z,54.00
2019-02-04T05:35:12.976Z,55.52
2019-02-04T05:37:39.149Z,56.89
2019-02-04T05:40:09.029Z,56.03
2019-02-04T05:42:35.335Z,55.37
2019-02-04T05:45:02.133Z,54.75
2019-02-04T05:47:28.295Z,54.13
2019-02-04T05:49:54.569Z,55.31
2019-02-04T05:52:20.781Z,55.46
2019-02-04T05:54:46.949Z,54.91
2019-02-04T05:57:13.126Z,54.14
2019-02-04T05:59:39.419Z,53.33
2019-02-04T06:02:05.706Z,52.69
2019-02-04T06:04:32.296Z,52.92
2019-02-04T06:06:58.512Z,51.91
2019-02-04T06:09:24.775Z,52.15
2019-02-04T06:11:51.055Z,50.45
2019-02-04T06:14:17.282Z,49.36
2019-02-04T06:16:43.437Z,47.71
2019-02-04T06:19:09.621Z,46.44
2019-02-04T06:21:35.812Z,46.46
2019-02-04T06:24:02.188Z,47.76
2019-02-04T06:26:28.363Z,49.04
2019-02-04T06:28:54.559Z,49.69
2019-02-04T06:31:20.739Z,49.18
2019-02-04T06:33:47.013Z,49.12
2019-02-04T06:36:13.240Z,48.80
2019-02-04T06:38:39.408Z,49.32
2019-02-04T06:41:05.574Z,50.61
2019-02-04T06:43:31.820Z,50.25
2019-02-04T06:45:58.079Z,50.56
2019-02-04T06:48:24.263Z,51.07
2019-02-04T06:50:51.005Z,50.25
2019-02-04T06:53:17.428Z,48.85
2019-02-04T06:55:43.606Z,47.13
2019-02-04T06:58:09.915Z,45.21
2019-02-04T07:00:36.089Z,44.40
2019-02-04T07:03:02.364Z,43.18
2019-02-04T07:05:28.679Z,42.13
2019-02-04T07:07:54.844Z,41.55
2019-02-04T07:10:25.622Z,40.55
2019-02-04T07:12:51.832Z,39.32
2019-02-04T07:15:18.455Z,38.26
2019-02-04T07:17:44.625Z,38.04
2019-02-04T07:20:14.513Z,38.30
2019-02-04T07:22:40.672Z,38.03
2019-02-04T07:25:12.398Z,37.85
2019-02-04T07:27:38.694Z,39.57
2019-02-04T07:30:29.312Z,40.50
2019-02-04T07:32:55.925Z,40.07
2019-02-04T07:35:22.095Z,39.92
2019-02-04T07:37:48.332Z,39.86
2019-02-04T07:40:17.630Z,40.86
2019-02-04T07:42:43.796Z,40.81
2019-02-04T07:45:10.103Z,41.11
2019-02-04T07:47:36.704Z,41.76
2019-02-04T07:50:05.274Z,40.63
2019-02-04T07:52:32.558Z,40.90
2019-02-04T07:54:58.759Z,40.80
2019-02-04T07:57:24.928Z,40.04
2019-02-04T07:59:51.104Z,39.30
2019-02-04T08:02:17.329Z,39.32
2019-02-04T08:04:43.607Z,38.16
2019-02-04T08:07:09.784Z,38.00
2019-02-04T08:09:36.284Z,38.34
2019-02-04T08:12:02.965Z,38.61
2019-02-04T08:14:29.229Z,39.90
2019-02-04T08:16:55.431Z,41.03
2019-02-04T08:19:21.698Z,41.67
2019-02-04T08:21:47.863Z,41.86
2019-02-04T08:24:14.160Z,42.42
2019-02-04T08:26:40.318Z,42.27
2019-02-04T08:29:06.625Z,41.39
2019-02-04T08:31:32.927Z,40.92
2019-02-04T08:33:59.196Z,40.97
2019-02-04T08:36:25.357Z,42.08
2019-02-04T08:38:52.517Z,41.19
2019-02-04T08:41:18.688Z,41.75
2019-02-04T08:43:44.960Z,42.10
2019-02-04T08:46:11.166Z,40.38
2019-02-04T08:48:37.736Z,38.99
2019-02-04T08:51:03.989Z,37.87
2019-02-04T08:53:30.280Z,38.17
2019-02-04T08:55:56.454Z,37.11
2019-02-04T08:58:22.632Z,38.04
2019-02-04T09:00:48.935Z,38.11
2019-02-04T09:03:15.590Z,37.57
2019-02-04T09:05:41.744Z,37.00
2019-02-04T09:08:11.077Z,37.75
2019-02-04T09:10:39.152Z,37.52
2019-02-04T09:13:06.372Z,37.72
2019-02-04T09:15:32.580Z,36.92
2019-02-04T09:17:59.548Z,36.68
2019-02-04T09:20:25.722Z,35.64
2019-02-04T09:22:52.004Z,35.35
2019-02-04T09:25:25.900Z,35.48
2019-02-04T09:27:52.281Z,35.06
2019-02-04T09:30:25.730Z,36.12
2019-02-04T09:32:52.053Z,36.20
2019-02-04T09:35:20.078Z,35.98
2019-02-04T09:37:46.412Z,35.54
2019-02-04T09:40:25.453Z,34.11
2019-02-04T09:42:51.705Z,35.95
2019-02-04T09:45:17.950Z,34.94
2019-02-04T09:47:44.111Z,33.97
2019-02-04T09:50:21.860Z,33.62
2019-02-04T09:52:47.541Z,33.25
2019-02-04T09:55:17.162Z,32.88
2019-02-04T09:57:43.532Z,31.76
2019-02-04T10:00:13.404Z,31.51
2019-02-04T10:02:42.464Z,31.49
2019-02-04T10:05:11.460Z,30.80
2019-02-04T10:07:37.623Z,29.71
2019-02-04T10:10:07.397Z,28.70
2019-02-04T10:12:33.790Z,28.78
2019-02-04T10:15:00.025Z,30.44
2019-02-04T10:17:26.238Z,32.92
2019-02-04T10:19:52.445Z,33.79
2019-02-04T10:22:18.745Z,33.45
2019-02-04T10:24:45.095Z,34.57
2019-02-04T10:27:11.991Z,34.77
2019-02-04T10:29:38.255Z,33.97
2019-02-04T10:32:04.749Z,35.25
2019-02-04T10:34:31.015Z,35.30
2019-02-04T10:36:57.211Z,34.39
2019-02-04T10:39:30.596Z,34.25
2019-02-04T10:41:57.009Z,33.62
2019-02-04T10:44:23.237Z,33.57
2019-02-04T10:46:49.501Z,33.89
2019-02-04T10:49:16.200Z,33.06
2019-02-04T10:51:42.530Z,34.26
2019-02-04T10:54:08.941Z,35.52
2019-02-04T10:56:35.203Z,34.67
2019-02-04T10:59:01.409Z,34.63
2019-02-04T11:01:27.799Z,33.39
2019-02-04T11:03:54.093Z,33.71
2019-02-04T11:06:20.280Z,34.75
2019-02-04T11:08:46.687Z,34.14
2019-02-04T11:11:13.060Z,34.97
2019-02-04T11:13:39.545Z,34.14
2019-02-04T11:16:06.061Z,32.46
2019-02-04T11:18:32.317Z,30.98
2019-02-04T11:20:58.661Z,32.44
2019-02-04T11:23:24.842Z,33.02
2019-02-04T11:25:53.154Z,31.29
2019-02-04T11:28:19.611Z,29.14
2019-02-04T11:30:49.369Z,29.36
2019-02-04T11:33:15.758Z,29.39
2019-02-04T11:35:42.070Z,30.29
2019-02-04T11:38:08.191Z,31.25
2019-02-04T11:40:38.910Z,30.52
2019-02-04T11:43:05.997Z,28.87
2019-02-04T11:45:32.353Z,28.64
2019-02-04T11:47:59.464Z,27.57
2019-02-04T11:50:25.838Z,27.83
2019-02-04T11:52:52.288Z,28.90
2019-02-04T11:55:19.076Z,28.50
2019-02-04T11:57:45.337Z,27.08
2019-02-04T12:00:18.226Z,26.17
2019-02-04T12:02:44.636Z,26.20
2019-02-04T12:05:14.384Z,26.86
2019-02-04T12:07:40.671Z,28.24
2019-02-04T12:10:36.037Z,26.71
2019-02-04T12:13:02.360Z,26.53
2019-02-04T12:15:28.531Z,27.13
2019-02-04T12:17:54.743Z,26.55
2019-02-04T12:20:21.054Z,28.15
2019-02-04T12:22:47.643Z,28.11
2019-02-04T12:25:19.962Z,27.10
2019-02-04T12:27:46.122Z,27.65
2019-02-04T12:30:16.492Z,28.38
2019-02-04T12:32:42.809Z,29.82
2019-02-04T12:35:10.575Z,29.25
2019-02-04T12:37:36.739Z,30.34
2019-02-04T12:40:05.543Z,32.09
2019-02-04T12:42:31.850Z,31.09
2019-02-04T12:44:58.066Z,30.40
2019-02-04T12:47:24.872Z,30.79
2019-02-04T12:49:51.133Z,31.23
2019-02-04T12:52:17.437Z,30.83
2019-02-04T12:54:43.623Z,30.64
2019-02-04T12:57:10.008Z,31.55
2019-02-04T12:59:36.263Z,31.50
2019-02-04T13:02:02.585Z,31.12
2019-02-04T13:04:28.843Z,31.01
2019-02-04T13:06:57.301Z,31.59
2019-02-04T13:09:23.498Z,31.73
2019-02-04T13:11:49.669Z,31.23
2019-02-04T13:14:15.959Z,31.81
2019-02-04T13:16:42.268Z,31.50
2019-02-04T13:19:11.301Z,32.05
2019-02-04T13:21:45.220Z,33.71
2019-02-04T13:24:05.680Z,35.68
2019-02-04T13:26:31.851Z,37.36
2019-02-04T13:28:58.004Z,40.11
2019-02-04T13:31:26.153Z,41.00
2019-02-04T13:33:52.326Z,42.08
2019-02-04T13:36:18.594Z,43.83
2019-02-04T13:38:47.079Z,43.84
2019-02-04T13:41:13.341Z,44.36
2019-02-04T13:43:42.486Z,45.23
2019-02-04T13:46:09.958Z,45.17
2019-02-04T13:48:36.460Z,45.17
2019-02-04T13:51:03.185Z,44.99
2019-02-04T13:53:29.565Z,44.44
2019-02-04T13:55:58.661Z,44.93
2019-02-04T13:58:24.841Z,44.99
2019-02-04T14:00:51.361Z,45.88
2019-02-04T14:03:18.055Z,46.03
2019-02-04T14:05:44.511Z,46.15
2019-02-04T14:08:10.729Z,46.63
2019-02-04T14:10:39.606Z,48.14
2019-02-04T14:13:06.279Z,47.52
2019-02-04T14:15:35.512Z,50.03
2019-02-04T14:18:01.361Z,50.09
2019-02-04T14:20:27.612Z,50.51
2019-02-04T14:22:53.843Z,50.51
2019-02-04T14:25:20.301Z,51.00
2019-02-04T14:27:46.669Z,51.03
2019-02-04T14:30:16.477Z,51.68
2019-02-04T14:32:42.661Z,52.04
2019-02-04T14:35:09.016Z,52.10
2019-02-04T14:37:35.518Z,51.29
2019-02-04T14:40:17.752Z,52.50
2019-02-04T14:42:31.442Z,52.11
2019-02-04T14:44:57.832Z,52.93
2019-02-04T14:47:30.775Z,53.85
2019-02-04T14:50:15.889Z,53.92
2019-02-04T14:52:45.724Z,54.52
2019-02-04T14:55:24.474Z,54.68
2019-02-04T14:58:09.621Z,54.59
2019-02-04T15:00:56.056Z,54.73
2019-02-04T15:03:43.860Z,54.46
2019-02-04T15:06:13.661Z,53.45
2019-02-04T15:08:52.400Z,54.25
2019-02-04T15:11:22.354Z,55.13
2019-02-04T15:14:07.578Z,55.62
2019-02-04T15:16:37.916Z,54.93
2019-02-04T15:19:24.290Z,53.74
2019-02-04T15:22:17.299Z,53.46
2019-02-04T15:25:06.909Z,55.42
2019-02-04T15:27:37.213Z,54.73
2019-02-04T15:30:10.001Z,54.79
2019-02-04T15:32:42.826Z,54.71
2019-02-04T15:35:36.800Z,54.86
2019-02-04T15:38:15.501Z,55.25
2019-02-04T15:40:51.110Z,54.48
2019-02-04T15:43:33.210Z,54.58
2019-02-04T15:46:08.665Z,54.63
2019-02-04T15:48:44.687Z,54.94
2019-02-04T15:51:20.584Z,54.47
2019-02-04T15:53:46.784Z,54.41
2019-02-04T15:56:12.943Z,54.33
2019-02-04T15:58:39.107Z,54.18
2019-02-04T16:01:05.524Z,53.53
2019-02-04T16:03:31.810Z,53.25
2019-02-04T16:05:57.975Z,53.25
2019-02-04T16:08:24.272Z,52.63
2019-02-04T16:10:50.567Z,52.82
2019-02-04T16:13:16.842Z,52.58
2019-02-04T16:15:43.134Z,52.40
2019-02-04T16:18:09.434Z,51.98
2019-02-04T16:20:35.719Z,52.38
2019-02-04T16:23:02.006Z,52.32
2019-02-04T16:25:28.174Z,53.67
2019-02-04T16:27:54.440Z,54.23
2019-02-04T16:30:21.024Z,53.21
2019-02-04T16:32:47.279Z,54.17
2019-02-04T16:35:16.358Z,54.25
2019-02-04T16:37:42.786Z,54.36
2019-02-04T16:40:12.260Z,54.48
2019-02-04T16:42:38.543Z,54.33
2019-02-04T16:45:08.047Z,53.47
2019-02-04T16:47:34.235Z,53.46
2019-02-04T16:50:00.439Z,52.72
2019-02-04T16:52:26.977Z,52.64
2019-02-04T16:54:53.248Z,52.72
2019-02-04T16:57:19.410Z,52.85
2019-02-04T16:59:45.721Z,52.55
2019-02-04T17:02:11.991Z,52.26
2019-02-04T17:04:38.266Z,54.01
2019-02-04T17:07:04.977Z,53.63
2019-02-04T17:09:31.148Z,53.59
2019-02-04T17:11:57.715Z,54.43
2019-02-04T17:14:24.025Z,55.04
2019-02-04T17:16:50.406Z,55.21
2019-02-04T17:19:16.564Z,54.55
2019-02-04T17:21:42.872Z,54.67
2019-02-04T17:24:09.158Z,55.28
2019-02-04T17:26:35.322Z,54.64
2019-02-04T17:29:01.674Z,55.11
2019-02-04T17:31:28.339Z,56.19
2019-02-04T17:33:54.666Z,55.66
2019-02-04T17:36:21.017Z,55.96
2019-02-04T17:38:47.291Z,56.69
2019-02-04T17:41:13.854Z,56.73
2019-02-04T17:43:40.149Z,55.87
2019-02-04T17:46:06.318Z,56.63
2019-02-04T17:48:32.475Z,57.38
2019-02-04T17:50:59.331Z,57.02
2019-02-04T17:53:33.951Z,56.30
2019-02-04T17:55:53.874Z,56.34
2019-02-04T17:58:20.082Z,56.13
2019-02-04T18:00:48.148Z,56.25
2019-02-04T18:03:14.708Z,56.80
2019-02-04T18:05:40.899Z,56.28
2019-02-04T18:08:07.663Z,57.14
2019-02-04T18:10:33.833Z,57.05
2019-02-04T18:13:00.020Z,57.54
2019-02-04T18:15:26.285Z,58.29
2019-02-04T18:17:52.563Z,57.57
2019-02-04T18:20:18.762Z,56.84
2019-02-04T18:22:45.026Z,57.40
2019-02-04T18:25:16.510Z,57.14
2019-02-04T18:27:42.879Z,57.13
2019-02-04T18:30:17.327Z,58.39
2019-02-04T18:32:43.492Z,59.21
2019-02-04T18:35:11.782Z,59.15
2019-02-04T18:37:38.153Z,58.61
2019-02-04T18:40:12.117Z,58.52
2019-02-04T18:42:38.222Z,57.94
2019-02-04T18:45:07.996Z,57.87
2019-02-04T18:47:40.257Z,58.64
2019-02-04T18:50:09.462Z,59.00
2019-02-04T18:52:37.105Z,58.83
2019-02-04T18:55:06.613Z,59.36
2019-02-04T18:57:34.938Z,58.91
2019-02-04T19:00:01.156Z,58.57
2019-02-04T19:02:27.328Z,58.93
2019-02-04T19:04:53.551Z,58.16
2019-02-04T19:07:19.721Z,58.35
2019-02-04T19:09:45.979Z,58.69
2019-02-04T19:12:12.827Z,58.79
2019-02-04T19:14:39.086Z,58.71
2019-02-04T19:17:05.266Z,57.91
2019-02-04T19:19:31.670Z,57.44
2019-02-04T19:21:57.801Z,57.37
2019-02-04T19:24:23.960Z,57.88
2019-02-04T19:26:50.203Z,58.02
2019-02-04T19:29:16.450Z,58.35
2019-02-04T19:31:43.028Z,57.59
2019-02-04T19:34:09.334Z,57.65
2019-02-04T19:36:35.599Z,57.25
2019-02-04T19:39:03.698Z,56.51
2019-02-04T19:41:29.898Z,56.59
2019-02-04T19:43:56.053Z,57.00
2019-02-04T19:46:22.218Z,56.67
2019-02-04T19:48:48.408Z,56.81
2019-02-04T19:51:15.079Z,56.81
2019-02-04T19:53:41.368Z,57.28
2019-02-04T19:56:07.648Z,57.14
2019-02-04T19:58:33.844Z,57.00
2019-02-04T20:01:00.005Z,57.42
2019-02-04T20:03:26.305Z,57.19
2019-02-04T20:05:52.579Z,57.04
2019-02-04T20:08:18.752Z,57.19
2019-02-04T20:10:45.467Z,57.05
2019-02-04T20:13:11.739Z,57.91
2019-02-04T20:15:38.130Z,58.45
2019-02-04T20:18:04.665Z,58.05
2019-02-04T20:20:30.842Z,58.69
2019-02-04T20:22:57.135Z,59.50
2019-02-04T20:25:30.262Z,60.16
2019-02-04T20:27:56.675Z,60.58
2019-02-04T20:30:45.820Z,60.43
2019-02-04T20:33:10.508Z,60.83
2019-02-04T20:35:35.925Z,59.72
2019-02-04T20:38:02.228Z,59.79
2019-02-04T20:40:28.482Z,59.57
2019-02-04T20:42:54.771Z,59.79
2019-02-04T20:45:21.565Z,60.10
2019-02-04T20:47:53.906Z,59.82
2019-02-04T20:50:29.064Z,59.58
2019-02-04T20:52:55.231Z,59.85
2019-02-04T20:55:21.392Z,59.73
2019-02-04T20:57:48.586Z,59.97
2019-02-04T21:00:18.155Z,59.88
2019-02-04T21:02:44.435Z,59.84
2019-02-04T21:05:10.742Z,60.74
2019-02-04T21:07:36.904Z,61.96
2019-02-04T21:10:06.678Z,61.44
2019-02-04T21:12:32.988Z,62.56
2019-02-04T21:14:59.277Z,62.91
2019-02-04T21:17:29.576Z,63.24
2019-02-04T21:19:55.786Z,62.64
2019-02-04T21:22:22.056Z,62.71
2019-02-04T21:24:56.195Z,61.63
2019-02-04T21:27:16.573Z,61.57
2019-02-04T21:29:42.821Z,62.64
2019-02-04T21:32:09.130Z,61.30
2019-02-04T21:34:35.352Z,61.82
2019-02-04T21:37:01.852Z,63.50
2019-02-04T21:39:28.033Z,63.86
2019-02-04T21:41:54.230Z,62.82
2019-02-04T21:44:20.401Z,62.33
2019-02-04T21:46:46.574Z,63.25
2019-02-04T21:49:12.769Z,63.14
2019-02-04T21:51:38.942Z,63.21
2019-02-04T21:54:05.205Z,63.39
2019-02-04T21:56:31.935Z,63.61
2019-02-04T21:58:58.245Z,62.95
2019-02-04T22:01:24.426Z,61.23
2019-02-04T22:03:51.596Z,61.78
2019-02-04T22:06:17.866Z,62.02
2019-02-04T22:08:44.140Z,62.57
2019-02-04T22:11:10.437Z,62.16
2019-02-04T22:13:36.615Z,62.29
2019-02-04T22:16:03.276Z,61.93
2019-02-04T22:18:29.489Z,62.77
2019-02-04T22:20:55.757Z,63.42
2019-02-04T22:23:21.923Z,63.65
2019-02-04T22:25:48.505Z,64.13
2019-02-04T22:28:14.669Z,64.83
2019-02-04T22:30:41.345Z,64.18
2019-02-04T22:33:07.817Z,64.20
2019-02-04T22:35:34.086Z,63.50
2019-02-04T22:38:00.460Z,63.08
2019-02-04T22:40:29.727Z,62.46
2019-02-04T22:42:56.779Z,62.90
2019-02-04T22:45:23.046Z,62.03
2019-02-04T22:47:49.249Z,61.49
2019-02-04T22:50:22.157Z,64.17
2019-02-04T22:52:48.317Z,63.49
2019-02-04T22:55:15.831Z,63.08
2019-02-04T22:57:41.997Z,62.57
2019-02-04T23:00:23.461Z,62.20
2019-02-04T23:02:49.747Z,62.92
2019-02-04T23:05:15.932Z,62.93
2019-02-04T23:07:42.232Z,61.64
2019-02-04T23:10:08.818Z,60.69
2019-02-04T23:12:35.084Z,58.97
2019-02-04T23:15:01.387Z,61.23
2019-02-04T23:17:27.564Z,59.29
2019-02-04T23:19:53.952Z,59.96
2019-02-04T23:22:20.154Z,61.74
2019-02-04T23:24:46.441Z,62.31
2019-02-04T23:27:12.621Z,60.84
2019-02-04T23:29:38.943Z,61.60
2019-02-04T23:32:05.122Z,60.64
2019-02-04T23:34:31.393Z,59.81
2019-02-04T23:36:57.591Z,59.27
2019-02-04T23:39:23.784Z,59.42
2019-02-04T23:41:49.944Z,61.38
2019-02-04T23:44:16.276Z,60.38
2019-02-04T23:46:42.460Z,60.98
2019-02-04T23:49:08.915Z,60.57
2019-02-04T23:51:35.223Z,59.31
2019-02-04T23:54:01.395Z,58.02
2019-02-04T23:56:27.567Z,58.30
2019-02-04T23:58:53.893Z,57.67
